Time;durP1;ratioP1;P1;durP2;ratioP2;P2;SDS_P1;SDS_P2;PMS_P1;PMS_P2;Temp;Humidity;BMP_temperature;BMP_pressure;BME280_temperature;BME280_humidity;BME280_pressure;Samples;Min_cycle;Max_cycle;Signal;HPM_P1;HPM_P2
2022/12/06 00:01:11;;;;;;;11.60;11.10;;;20.60;49.10;;;;;;5011889;28;20953;-67
2022/12/06 00:03:40;;;;;;;11.30;10.90;;;20.60;49.10;;;;;;5012213;28;20477;-68
2022/12/06 00:06:09;;;;;;;11.50;11.10;;;20.50;49.60;;;;;;5012358;28;20528;-68
2022/12/06 00:08:37;;;;;;;10.97;10.57;;;20.50;49.60;;;;;;5012123;28;20492;-68
2022/12/06 00:11:05;;;;;;;11.13;10.53;;;20.50;49.10;;;;;;5011596;28;20983;-68
2022/12/06 00:13:32;;;;;;;11.00;10.50;;;20.50;49.20;;;;;;5012097;28;20452;-68
2022/12/06 00:16:02;;;;;;;10.60;10.20;;;20.50;49.20;;;;;;5012125;28;20521;-68
2022/12/06 00:18:29;;;;;;;11.17;10.70;;;20.50;49.20;;;;;;5012066;28;20453;-68
2022/12/06 00:21:04;;;;;;;11.43;10.93;;;20.50;49.20;;;;;;5011553;28;20450;-68
2022/12/06 00:23:31;;;;;;;10.53;10.20;;;20.50;49.20;;;;;;5011953;28;20887;-68
2022/12/06 00:26:00;;;;;;;10.97;10.67;;;20.50;49.20;;;;;;5012077;28;20448;-68
2022/12/06 00:28:27;;;;;;;10.80;10.40;;;20.50;49.20;;;;;;5011889;28;20536;-68
2022/12/06 00:30:58;;;;;;;10.60;10.20;;;20.50;49.20;;;;;;5011383;28;20445;-68
2022/12/06 00:33:24;;;;;;;11.23;10.80;;;20.50;49.30;;;;;;5011822;28;20544;-68
2022/12/06 00:35:57;;;;;;;10.70;10.40;;;20.50;49.30;;;;;;5011866;28;20445;-68
2022/12/06 00:38:24;;;;;;;12.30;11.70;;;20.50;49.30;;;;;;5011855;28;20465;-68
2022/12/06 00:40:51;;;;;;;11.13;10.73;;;20.50;49.30;;;;;;5011375;28;20469;-68
2022/12/06 00:43:18;;;;;;;11.87;11.30;;;20.40;49.30;;;;;;5011380;28;20569;-68
2022/12/06 00:45:45;;;;;;;11.27;10.77;;;20.40;49.30;;;;;;5011736;28;20450;-68
2022/12/06 00:48:11;;;;;;;10.70;10.30;;;20.40;49.30;;;;;;5011770;28;20482;-68
2022/12/06 00:50:38;;;;;;;9.83;9.53;;;20.40;49.30;;;;;;5011245;28;20815;-68
2022/12/06 00:53:06;;;;;;;11.10;10.60;;;20.40;49.30;;;;;;5011564;28;20548;-68
2022/12/06 00:55:33;;;;;;;10.97;10.57;;;20.40;49.30;;;;;;5011742;28;20450;-68
2022/12/06 00:58:00;;;;;;;10.33;9.93;;;20.40;49.30;;;;;;5011658;28;20457;-68
2022/12/06 01:00:27;;;;;;;10.40;10.00;;;20.40;49.30;;;;;;5011442;28;20445;-68
2022/12/06 01:02:54;;;;;;;10.47;10.07;;;20.40;49.30;;;;;;5011830;28;20473;-68
2022/12/06 01:05:20;;;;;;;10.60;10.20;;;20.40;49.40;;;;;;5011661;28;20822;-68
2022/12/06 01:07:47;;;;;;;10.77;10.37;;;20.40;49.40;;;;;;5014604;28;20441;-68
2022/12/06 01:10:16;;;;;;;9.80;9.50;;;20.40;49.40;;;;;;5015103;28;20536;-67
2022/12/06 01:12:43;;;;;;;10.50;10.10;;;20.40;49.40;;;;;;5015339;28;20493;-68
2022/12/06 01:15:10;;;;;;;10.13;9.73;;;20.40;49.40;;;;;;5015389;28;20441;-68
2022/12/06 01:17:37;;;;;;;11.70;11.20;;;20.40;49.50;;;;;;5015441;28;20486;-68
2022/12/06 01:20:06;;;;;;;10.77;10.37;;;20.40;49.50;;;;;;5014961;28;20533;-68
2022/12/06 01:22:33;;;;;;;11.63;11.03;;;20.40;49.50;;;;;;5015141;28;20468;-68
2022/12/06 01:25:00;;;;;;;11.27;10.70;;;20.40;49.50;;;;;;5015256;28;20888;-68
2022/12/06 01:27:28;;;;;;;10.37;9.97;;;20.30;49.40;;;;;;5015110;28;20441;-68
2022/12/06 01:29:54;;;;;;;10.73;10.23;;;20.40;49.50;;;;;;5014720;28;20565;-68
2022/12/06 01:32:21;;;;;;;10.90;10.40;;;20.40;49.50;;;;;;5015026;28;21044;-68
2022/12/06 01:34:51;;;;;;;9.80;9.47;;;20.40;49.50;;;;;;5014968;28;20529;-68
2022/12/06 01:37:17;;;;;;;10.03;9.73;;;20.40;49.50;;;;;;5014988;28;20446;-68
2022/12/06 01:39:44;;;;;;;10.43;10.03;;;20.40;49.50;;;;;;5014514;28;20444;-68
2022/12/06 01:42:12;;;;;;;10.60;10.20;;;20.40;50.10;;;;;;5062840;23;20489;-56
2022/12/06 01:44:42;;;;;;;10.20;9.80;;;20.40;49.60;;;;;;5045105;28;20468;-55
2022/12/06 01:47:14;;;;;;;9.73;9.43;;;20.30;49.50;;;;;;5054615;28;20478;-55
2022/12/06 01:49:43;;;;;;;10.70;10.30;;;20.40;49.60;;;;;;5035242;28;20540;-57
2022/12/06 01:52:12;;;;;;;10.23;9.87;;;20.30;49.60;;;;;;5028053;28;20983;-57
2022/12/06 01:54:40;;;;;;;11.93;11.43;;;20.30;49.60;;;;;;5015375;28;20441;-53
2022/12/06 01:57:10;;;;;;;11.40;10.90;;;20.30;49.60;;;;;;5015545;28;20442;-57
2022/12/06 01:59:37;;;;;;;10.67;10.27;;;20.30;49.60;;;;;;5014748;28;20477;-54
2022/12/06 02:02:07;;;;;;;11.00;10.60;;;20.30;49.60;;;;;;5014352;28;20466;-59
2022/12/06 02:04:34;;;;;;;10.17;9.77;;;20.30;49.60;;;;;;5015070;28;20442;-56
2022/12/06 02:07:01;;;;;;;10.23;9.83;;;20.30;49.60;;;;;;5014981;28;20895;-56
2022/12/06 02:09:30;;;;;;;11.00;10.57;;;20.30;49.60;;;;;;5014039;28;20482;-56
2022/12/06 02:11:57;;;;;;;10.70;10.30;;;20.40;49.70;;;;;;5014475;28;20502;-54
2022/12/06 02:14:28;;;;;;;10.73;10.33;;;20.30;49.60;;;;;;5014537;28;20442;-55
2022/12/06 02:17:21;;;;;;;10.50;10.10;;;20.30;49.60;;;;;;5014454;28;20945;-56
2022/12/06 02:20:05;;;;;;;10.70;10.30;;;20.30;49.70;;;;;;5013258;28;20534;-55
2022/12/06 02:22:57;;;;;;;10.50;10.10;;;20.30;49.70;;;;;;5014013;28;20502;-59
2022/12/06 02:25:47;;;;;;;9.77;9.40;;;20.30;49.80;;;;;;5013860;28;21012;-58
2022/12/06 02:28:49;;;;;;;10.20;9.70;;;20.30;49.70;;;;;;5014427;28;20456;-56
2022/12/06 02:31:23;;;;;;;10.17;9.77;;;20.30;49.80;;;;;;5014006;28;20452;-52
2022/12/06 02:33:53;;;;;;;11.27;10.67;;;20.30;49.80;;;;;;5014034;28;20446;-59
2022/12/06 02:36:30;;;;;;;10.50;10.10;;;20.30;49.80;;;;;;5013728;28;20450;-56
2022/12/06 02:39:03;;;;;;;10.80;10.40;;;20.30;49.80;;;;;;5013809;28;20450;-53
2022/12/06 02:41:38;;;;;;;11.60;11.10;;;20.30;49.80;;;;;;5013700;28;20481;-56
2022/12/06 02:44:08;;;;;;;11.53;11.03;;;20.30;49.80;;;;;;5013601;28;20448;-56
2022/12/06 02:46:40;;;;;;;11.20;10.80;;;20.30;49.70;;;;;;5013896;28;20449;-55
2022/12/06 02:49:08;;;;;;;10.97;10.50;;;20.30;49.80;;;;;;5013715;28;20524;-57
2022/12/06 02:51:37;;;;;;;10.73;10.33;;;20.30;49.80;;;;;;5013403;28;20481;-54
2022/12/06 02:54:07;;;;;;;11.53;11.03;;;20.30;49.80;;;;;;5013339;28;20482;-58
2022/12/06 02:56:35;;;;;;;11.13;10.73;;;20.30;49.80;;;;;;5013506;28;20532;-55
2022/12/06 02:59:02;;;;;;;11.70;11.00;;;20.30;49.80;;;;;;5013433;28;20450;-55
2022/12/06 03:01:32;;;;;;;10.53;9.93;;;20.30;49.80;;;;;;5013539;28;20809;-53
2022/12/06 03:04:14;;;;;;;11.47;11.00;;;20.30;49.80;;;;;;5013435;28;20488;-56
2022/12/06 03:07:00;;;;;;;11.17;10.77;;;20.30;49.80;;;;;;5013533;28;20452;-52
2022/12/06 03:09:55;;;;;;;11.57;11.07;;;20.30;49.80;;;;;;5013243;28;20481;-57
2022/12/06 03:12:30;;;;;;;11.00;10.50;;;20.30;49.80;;;;;;5013298;28;20476;-56
2022/12/06 03:15:06;;;;;;;10.20;9.73;;;20.30;49.80;;;;;;5013102;28;20455;-58
2022/12/06 03:17:40;;;;;;;10.30;9.70;;;20.30;49.80;;;;;;5013381;28;20445;-56
2022/12/06 03:20:18;;;;;;;10.53;10.07;;;20.30;49.80;;;;;;5012868;28;20529;-55
2022/12/06 03:22:50;;;;;;;10.30;9.83;;;20.30;50.30;;;;;;5012857;28;20564;-54
2022/12/06 03:25:17;;;;;;;10.40;10.00;;;20.30;49.80;;;;;;4994095;28;20530;-57
2022/12/06 03:27:47;;;;;;;10.20;9.80;;;20.30;49.80;;;;;;4993732;28;20453;-55
2022/12/06 03:30:15;;;;;;;10.80;10.10;;;20.30;49.80;;;;;;4992864;28;20851;-57
2022/12/06 03:32:46;;;;;;;10.67;10.17;;;20.30;49.80;;;;;;4993718;28;20470;-58
2022/12/06 03:35:18;;;;;;;9.37;8.97;;;20.30;49.80;;;;;;5012960;28;20568;-54
2022/12/06 03:37:49;;;;;;;10.03;9.53;;;20.30;49.80;;;;;;5012792;28;20529;-58
2022/12/06 03:40:19;;;;;;;10.53;10.03;;;20.30;49.80;;;;;;5012655;28;20829;-56
2022/12/06 03:42:48;;;;;;;11.93;11.33;;;20.30;49.90;;;;;;5012530;28;20565;-54
2022/12/06 03:45:17;;;;;;;10.87;10.37;;;20.30;49.90;;;;;;5009570;28;20537;-56
2022/12/06 03:47:50;;;;;;;9.90;9.50;;;20.30;49.80;;;;;;5013021;28;20945;-56
2022/12/06 03:50:24;;;;;;;10.23;9.83;;;20.30;49.80;;;;;;5012702;28;20492;-59
2022/12/06 03:52:51;;;;;;;11.53;11.03;;;20.30;49.80;;;;;;5013054;28;20470;-51
2022/12/06 03:55:19;;;;;;;10.90;10.40;;;20.30;49.80;;;;;;5013567;28;20529;-57
2022/12/06 03:57:45;;;;;;;10.13;9.73;;;20.30;49.80;;;;;;5013060;28;20528;-57
2022/12/06 04:00:15;;;;;;;11.20;10.60;;;20.30;49.80;;;;;;5012200;28;20460;-59
2022/12/06 04:02:42;;;;;;;11.90;11.23;;;20.30;49.90;;;;;;5012075;28;20531;-58
2022/12/06 04:05:10;;;;;;;10.50;10.10;;;20.30;49.90;;;;;;5012224;28;20452;-57
2022/12/06 04:07:38;;;;;;;11.43;10.93;;;20.30;49.80;;;;;;5012437;28;20450;-55
2022/12/06 04:10:06;;;;;;;11.70;11.10;;;20.30;49.80;;;;;;5012125;28;20478;-57
2022/12/06 04:15:21;;;;;;;11.17;10.70;;;20.40;50.30;;;;;;5012332;28;20425;-55
2022/12/06 04:23:02;;;;;;;11.40;10.80;;;20.40;49.70;;;;;;5012070;28;20882;-57
2022/12/06 04:23:21;;;;;;;11.07;10.50;;;20.40;49.70;;;;;;5011632;28;20461;-58
2022/12/06 04:25:47;;;;;;;11.13;10.53;;;20.40;49.60;;;;;;5012462;28;20454;-58
2022/12/06 04:39:13;;;;;;;11.00;10.60;;;20.50;49.50;;;;;;4992410;28;20422;-57
2022/12/06 04:44:24;;;;;;;11.30;10.80;;;20.50;49.60;;;;;;5012224;28;20409;-57
2022/12/06 04:46:51;;;;;;;11.13;10.53;;;20.60;50.20;;;;;;5011855;28;20536;-58
2022/12/06 04:49:18;;;;;;;12.03;11.43;;;20.60;49.70;;;;;;5011536;28;20513;-57
2022/12/06 04:51:45;;;;;;;11.67;11.17;;;20.60;49.70;;;;;;5011354;28;20814;-57
2022/12/06 04:54:13;;;;;;;12.43;11.90;;;20.60;49.50;;;;;;5011918;28;20489;-54
2022/12/06 04:56:40;;;;;;;12.73;12.07;;;20.60;49.50;;;;;;5011858;28;20528;-58
2022/12/06 04:59:06;;;;;;;11.60;11.10;;;20.60;49.50;;;;;;5011512;28;20525;-58
2022/12/06 05:01:33;;;;;;;13.43;12.40;;;20.60;49.60;;;;;;5011451;28;20442;-58
2022/12/06 05:04:00;;;;;;;11.60;11.10;;;20.60;49.70;;;;;;5011888;28;20493;-56
2022/12/06 05:06:27;;;;;;;12.13;11.53;;;20.60;49.80;;;;;;5011917;28;20454;-58
2022/12/06 05:08:54;;;;;;;12.93;12.30;;;20.60;49.90;;;;;;5011210;28;20450;-59
2022/12/06 05:11:22;;;;;;;12.83;12.13;;;20.70;50.10;;;;;;5011727;28;20446;-57
2022/12/06 05:13:49;;;;;;;12.83;12.23;;;20.70;50.00;;;;;;5011538;28;20461;-56
2022/12/06 05:16:16;;;;;;;12.73;12.10;;;20.70;50.20;;;;;;5011886;28;20457;-54
2022/12/06 05:18:43;;;;;;;12.30;11.70;;;20.70;50.10;;;;;;5011415;28;20456;-57
2022/12/06 05:21:13;;;;;;;13.40;12.77;;;20.70;50.20;;;;;;5011436;28;20472;-58
2022/12/06 05:23:41;;;;;;;12.83;12.27;;;20.70;50.80;;;;;;5011540;28;20462;-58
2022/12/06 05:26:11;;;;;;;13.00;12.20;;;20.80;50.80;;;;;;5011713;28;20450;-57
2022/12/06 05:28:39;;;;;;;12.77;12.07;;;20.80;50.10;;;;;;5011788;28;20520;-59
2022/12/06 05:31:07;;;;;;;13.53;12.73;;;20.80;50.20;;;;;;5011286;28;20973;-55
2022/12/06 05:33:34;;;;;;;13.10;12.37;;;20.80;50.10;;;;;;5011746;28;20553;-60
2022/12/06 05:36:07;;;;;;;12.23;11.63;;;20.90;50.20;;;;;;5011778;28;20937;-59
2022/12/06 05:38:34;;;;;;;12.97;12.17;;;20.90;50.40;;;;;;5011305;28;20450;-57
2022/12/06 05:41:01;;;;;;;11.77;11.10;;;20.90;51.00;;;;;;5011301;28;20507;-58
2022/12/06 05:43:29;;;;;;;12.63;12.03;;;21.00;50.80;;;;;;5011225;28;20505;-54
2022/12/06 05:45:58;;;;;;;14.43;13.47;;;21.00;50.80;;;;;;5011293;28;20937;-58
2022/12/06 05:48:25;;;;;;;13.83;12.93;;;21.10;51.20;;;;;;5010987;28;20472;-59
2022/12/06 05:50:53;;;;;;;17.53;14.10;;;21.10;51.60;;;;;;5011140;28;20581;-58
2022/12/06 05:53:21;;;;;;;17.60;16.20;;;21.20;57.20;;;;;;5013711;28;20704;-59
2022/12/06 05:55:48;;;;;;;17.03;15.50;;;21.20;59.50;;;;;;5015385;28;20446;-57
2022/12/06 05:58:15;;;;;;;12.47;11.33;;;21.20;59.90;;;;;;5013648;28;20473;-63
2022/12/06 06:00:45;;;;;;;15.03;13.43;;;21.20;57.10;;;;;;5014364;28;20442;-63
2022/12/06 06:03:13;;;;;;;13.17;12.10;;;21.30;56.30;;;;;;5014603;28;20984;-63
2022/12/06 06:05:45;;;;;;;11.97;11.07;;;21.50;55.70;;;;;;5015422;28;20480;-63
2022/12/06 06:08:12;;;;;;;19.03;12.80;;;21.60;54.90;;;;;;5016222;28;20472;-63
2022/12/06 06:10:39;;;;;;;12.47;11.40;;;21.70;54.30;;;;;;5020698;28;20482;-63
2022/12/06 06:13:06;;;;;;;16.10;13.47;;;21.70;53.60;;;;;;5021705;28;20557;-57
2022/12/06 06:15:33;;;;;;;13.30;12.30;;;21.80;53.20;;;;;;5019400;28;20448;-62
2022/12/06 06:17:59;;;;;;;15.60;11.80;;;21.80;52.80;;;;;;5019053;28;20949;-61
2022/12/06 06:20:28;;;;;;;12.27;11.13;;;21.80;52.40;;;;;;5018367;28;20482;-59
2022/12/06 06:22:55;;;;;;;14.27;12.50;;;21.90;52.20;;;;;;5017548;28;20553;-62
2022/12/06 06:25:21;;;;;;;13.30;12.07;;;21.90;51.90;;;;;;5016590;28;20452;-60
2022/12/06 06:27:48;;;;;;;12.10;11.20;;;21.90;51.70;;;;;;5014333;28;20453;-62
2022/12/06 06:30:16;;;;;;;12.80;11.80;;;21.90;51.40;;;;;;5013902;28;20513;-62
2022/12/06 06:32:43;;;;;;;12.10;11.00;;;22.00;51.30;;;;;;5013996;28;20843;-62
2022/12/06 06:35:10;;;;;;;11.83;11.07;;;22.00;51.10;;;;;;5013937;28;20441;-59
2022/12/06 06:37:38;;;;;;;10.83;10.13;;;22.00;51.00;;;;;;5013832;28;20445;-62
2022/12/06 06:40:06;;;;;;;13.67;12.47;;;22.00;50.80;;;;;;5013661;28;20521;-61
2022/12/06 06:42:33;;;;;;;13.17;12.07;;;22.10;50.70;;;;;;5013826;28;20470;-60
2022/12/06 06:45:00;;;;;;;12.27;10.73;;;22.10;50.50;;;;;;5013904;28;20452;-60
2022/12/06 06:47:27;;;;;;;12.70;11.57;;;22.10;50.40;;;;;;5013937;28;20449;-61
2022/12/06 06:49:54;;;;;;;13.17;12.07;;;22.10;50.30;;;;;;5014219;28;20489;-61
2022/12/06 06:52:21;;;;;;;11.57;10.60;;;22.10;50.20;;;;;;5014244;28;20488;-62
2022/12/06 06:54:49;;;;;;;10.00;9.40;;;22.10;50.10;;;;;;5014760;28;20934;-61
2022/12/06 06:57:17;;;;;;;12.40;11.40;;;22.10;50.00;;;;;;5014430;28;20445;-60
2022/12/06 06:59:44;;;;;;;11.53;10.67;;;22.10;49.90;;;;;;5014316;28;20957;-56
2022/12/06 07:02:12;;;;;;;12.03;11.10;;;22.10;49.80;;;;;;5013264;28;20549;-59
2022/12/06 07:04:39;;;;;;;12.37;11.27;;;22.10;49.80;;;;;;5012995;28;20457;-61
2022/12/06 07:07:06;;;;;;;10.77;10.17;;;22.10;49.70;;;;;;5013384;28;20458;-60
2022/12/06 07:09:33;;;;;;;11.47;10.70;;;22.10;49.60;;;;;;5013034;28;20441;-61
2022/12/06 07:12:02;;;;;;;11.50;10.63;;;22.10;49.50;;;;;;5013119;28;20587;-59
2022/12/06 07:14:28;;;;;;;9.97;9.37;;;22.20;49.60;;;;;;5013223;28;20485;-59
2022/12/06 07:16:55;;;;;;;10.67;10.07;;;22.20;49.50;;;;;;5013188;28;20478;-59
2022/12/06 07:19:22;;;;;;;11.13;10.30;;;22.20;49.50;;;;;;5013040;28;20485;-61
2022/12/06 07:21:49;;;;;;;11.13;10.27;;;22.10;49.30;;;;;;5013230;28;20961;-60
2022/12/06 07:24:16;;;;;;;10.77;9.70;;;22.20;49.40;;;;;;5013395;28;20449;-58
2022/12/06 07:26:43;;;;;;;10.40;9.70;;;22.20;49.30;;;;;;5013282;28;20454;-60
2022/12/06 07:29:12;;;;;;;10.17;9.50;;;22.20;49.20;;;;;;5012761;28;20508;-56
2022/12/06 07:31:40;;;;;;;10.53;9.93;;;22.20;49.20;;;;;;5012979;28;20485;-59
2022/12/06 07:34:08;;;;;;;10.87;10.30;;;22.20;49.20;;;;;;5013126;28;20446;-61
2022/12/06 07:36:35;;;;;;;10.33;9.60;;;22.20;49.10;;;;;;5013012;28;20446;-61
2022/12/06 07:39:01;;;;;;;11.63;10.90;;;22.20;49.10;;;;;;5012602;28;20446;-60
2022/12/06 07:47:01;;;;;;;10.53;9.83;;;22.20;49.10;;;;;;5012861;28;20516;-63
2022/12/06 07:49:29;;;;;;;10.53;9.73;;;22.20;49.00;;;;;;5012501;28;20956;-63
2022/12/06 07:51:56;;;;;;;9.87;9.20;;;22.20;49.00;;;;;;5012259;28;20564;-63
2022/12/06 07:54:24;;;;;;;10.00;9.40;;;22.20;49.00;;;;;;5012573;28;20532;-62
2022/12/06 07:56:51;;;;;;;10.53;9.70;;;22.20;48.90;;;;;;5012576;28;20537;-61
2022/12/06 07:59:19;;;;;;;10.83;9.83;;;22.20;48.90;;;;;;5012633;28;20478;-63
2022/12/06 08:01:46;;;;;;;10.60;9.63;;;22.20;48.80;;;;;;5012411;28;20461;-63
2022/12/06 08:04:14;;;;;;;9.67;9.03;;;22.20;48.80;;;;;;5012738;28;20529;-63
2022/12/06 08:06:41;;;;;;;9.60;9.00;;;22.20;48.80;;;;;;5012595;28;20949;-63
2022/12/06 08:09:08;;;;;;;10.83;10.20;;;22.20;48.70;;;;;;5012231;28;20545;-63
2022/12/06 08:11:36;;;;;;;8.83;8.43;;;22.20;48.70;;;;;;5012248;28;20496;-63
2022/12/06 08:14:03;;;;;;;9.63;8.97;;;22.20;48.60;;;;;;5012821;28;20448;-63
2022/12/06 08:16:32;;;;;;;9.27;8.87;;;22.20;48.60;;;;;;5011299;28;20830;-64
2022/12/06 08:18:59;;;;;;;9.40;8.87;;;22.20;48.60;;;;;;5012202;28;20484;-64
2022/12/06 08:21:25;;;;;;;8.73;8.33;;;22.30;48.60;;;;;;5012134;28;20446;-64
2022/12/06 08:23:53;;;;;;;9.23;8.83;;;22.20;48.50;;;;;;5011974;28;20508;-65
2022/12/06 08:26:21;;;;;;;9.30;8.70;;;22.20;48.50;;;;;;5012086;28;20458;-64
2022/12/06 08:28:48;;;;;;;10.17;9.57;;;22.30;48.60;;;;;;5012074;28;20492;-64
2022/12/06 08:31:18;;;;;;;9.47;8.97;;;22.30;48.50;;;;;;5011887;28;20497;-62
2022/12/06 08:33:47;;;;;;;8.50;8.07;;;22.30;48.50;;;;;;5011965;28;20462;-64
2022/12/06 08:36:16;;;;;;;8.83;8.43;;;22.30;48.50;;;;;;5012341;28;20535;-64
2022/12/06 08:38:44;;;;;;;8.83;8.43;;;22.30;48.50;;;;;;5012329;28;20450;-64
2022/12/06 08:41:54;;;;;;;9.00;8.60;;;22.30;48.40;;;;;;5012122;28;20501;-64
2022/12/06 08:43:59;;;;;;;8.67;8.23;;;22.30;48.40;;;;;;5011907;28;20809;-64
2022/12/06 08:46:28;;;;;;;9.03;8.53;;;22.30;48.30;;;;;;5012065;28;20441;-64
2022/12/06 08:48:57;;;;;;;9.37;8.87;;;22.30;48.30;;;;;;5012018;28;20847;-63
2022/12/06 08:51:25;;;;;;;8.83;8.43;;;22.30;48.30;;;;;;5012141;28;21020;-61
2022/12/06 08:53:54;;;;;;;8.63;8.27;;;22.30;48.30;;;;;;5011836;28;20450;-64
2022/12/06 08:56:21;;;;;;;7.97;7.57;;;22.30;48.30;;;;;;5011842;28;20457;-64
2022/12/06 08:58:48;;;;;;;9.53;9.03;;;22.30;48.30;;;;;;5011728;28;20482;-63
2022/12/06 09:01:18;;;;;;;8.50;8.00;;;22.30;48.20;;;;;;5011777;28;20521;-64
2022/12/06 09:03:44;;;;;;;8.20;7.80;;;22.30;48.20;;;;;;5011630;28;20497;-63
2022/12/06 09:06:13;;;;;;;8.57;8.03;;;22.30;48.20;;;;;;5011678;28;20563;-63
2022/12/06 09:08:41;;;;;;;8.67;8.27;;;22.30;48.20;;;;;;5012033;28;20512;-63
2022/12/06 09:11:09;;;;;;;8.10;7.90;;;22.30;48.20;;;;;;5011760;28;20572;-64
2022/12/06 09:13:37;;;;;;;8.47;8.13;;;22.30;48.10;;;;;;5011554;28;20468;-63
2022/12/06 09:16:06;;;;;;;9.17;8.67;;;22.30;48.10;;;;;;5011764;28;20477;-63
2022/12/06 09:18:33;;;;;;;7.70;7.40;;;22.30;48.10;;;;;;5011604;28;20477;-63
2022/12/06 09:21:04;;;;;;;8.27;7.87;;;22.30;48.10;;;;;;5011363;28;20446;-63
2022/12/06 09:23:33;;;;;;;8.30;7.80;;;22.30;48.10;;;;;;5011454;28;20470;-63
2022/12/06 09:25:59;;;;;;;7.53;7.20;;;22.30;48.10;;;;;;5011475;28;20477;-63
2022/12/06 09:28:26;;;;;;;8.57;8.17;;;22.30;48.00;;;;;;5013928;28;20484;-63
2022/12/06 09:30:54;;;;;;;7.87;7.57;;;22.30;48.10;;;;;;5014923;28;20568;-63
2022/12/06 09:33:21;;;;;;;9.40;8.93;;;22.30;48.00;;;;;;5015273;28;20465;-63
2022/12/06 09:35:50;;;;;;;8.20;7.90;;;22.40;48.10;;;;;;5015349;28;20450;-64
2022/12/06 09:38:17;;;;;;;9.13;8.63;;;22.40;48.00;;;;;;5015122;28;20452;-63
2022/12/06 09:40:56;;;;;;;9.07;8.67;;;22.40;48.00;;;;;;5014791;28;20537;-60
2022/12/06 09:43:38;;;;;;;8.70;8.30;;;22.30;48.00;;;;;;5014894;28;20477;-63
2022/12/06 09:46:27;;;;;;;8.17;7.87;;;22.40;48.10;;;;;;5014891;28;20528;-63
2022/12/06 09:49:07;;;;;;;8.57;8.27;;;22.30;48.00;;;;;;5014732;28;20810;-62
2022/12/06 09:51:50;;;;;;;8.20;7.90;;;22.30;48.00;;;;;;5014753;28;20571;-61
2022/12/06 09:54:32;;;;;;;7.93;7.63;;;22.30;48.00;;;;;;5014909;28;20513;-61
2022/12/06 09:57:06;;;;;;;7.43;7.13;;;22.30;48.00;;;;;;5014797;28;20536;-61
2022/12/06 09:59:43;;;;;;;7.63;7.43;;;22.30;48.00;;;;;;5014470;28;20448;-61
2022/12/06 10:02:25;;;;;;;7.40;7.20;;;22.30;48.50;;;;;;5014589;28;20893;-62
2022/12/06 10:05:15;;;;;;;7.80;7.50;;;22.30;48.00;;;;;;5014564;28;20815;-61
2022/12/06 10:07:51;;;;;;;7.73;7.33;;;22.40;48.00;;;;;;5014551;28;20533;-61
2022/12/06 10:10:26;;;;;;;7.60;7.37;;;22.40;48.00;;;;;;5014365;28;20452;-59
2022/12/06 10:13:03;;;;;;;7.70;7.40;;;22.30;47.90;;;;;;5014259;28;20503;-62
2022/12/06 10:15:40;;;;;;;7.30;7.10;;;22.40;47.90;;;;;;5014340;28;20872;-62
2022/12/06 10:18:27;;;;;;;7.83;7.63;;;22.30;47.90;;;;;;5014546;28;20480;-61
2022/12/06 10:21:04;;;;;;;7.80;7.60;;;22.40;47.90;;;;;;5014206;28;20871;-62
2022/12/06 10:23:43;;;;;;;6.90;6.70;;;22.30;47.80;;;;;;5014055;28;20544;-63
2022/12/06 10:26:14;;;;;;;7.23;7.03;;;22.40;48.40;;;;;;5014254;28;20481;-62
2022/12/06 10:28:47;;;;;;;7.13;6.93;;;22.40;47.90;;;;;;5014052;28;20450;-62
2022/12/06 10:31:22;;;;;;;6.70;6.50;;;22.40;47.90;;;;;;5014203;28;20564;-61
2022/12/06 10:33:57;;;;;;;7.00;6.80;;;22.40;48.40;;;;;;5014021;28;20945;-60
2022/12/06 10:36:38;;;;;;;7.17;6.97;;;22.40;47.80;;;;;;5013881;28;20862;-63
2022/12/06 10:39:12;;;;;;;6.70;6.50;;;22.40;47.80;;;;;;5013015;28;20446;-62
2022/12/06 10:41:46;;;;;;;6.80;6.50;;;22.40;47.80;;;;;;5013726;28;20530;-63
2022/12/06 10:44:20;;;;;;;6.40;6.20;;;22.30;47.80;;;;;;5014263;28;20511;-62
2022/12/06 10:47:02;;;;;;;6.90;6.70;;;22.40;47.90;;;;;;5013697;28;20454;-59
2022/12/06 10:49:37;;;;;;;6.93;6.73;;;22.40;47.80;;;;;;5013559;28;20441;-61
2022/12/06 10:52:16;;;;;;;6.70;6.50;;;22.40;47.80;;;;;;5013512;28;20517;-63
2022/12/06 10:54:54;;;;;;;6.27;6.10;;;22.40;47.80;;;;;;5013499;28;20951;-57
2022/12/06 10:57:26;;;;;;;7.03;6.83;;;22.40;47.80;;;;;;5013551;28;20460;-61
2022/12/06 11:00:01;;;;;;;6.90;6.70;;;22.40;47.80;;;;;;5013336;28;20541;-59
2022/12/06 11:02:37;;;;;;;7.50;7.30;;;22.40;47.80;;;;;;5013536;28;20463;-58
2022/12/06 11:05:14;;;;;;;6.30;6.10;;;22.40;47.80;;;;;;5013593;28;20453;-62
2022/12/06 11:07:45;;;;;;;6.77;6.57;;;22.40;47.80;;;;;;5013439;28;20532;-62
2022/12/06 11:10:20;;;;;;;7.10;6.90;;;22.40;47.80;;;;;;5013276;28;20481;-60
2022/12/06 11:12:48;;;;;;;6.40;6.30;;;22.40;47.80;;;;;;5013225;28;20822;-58
2022/12/06 11:15:21;;;;;;;7.00;6.80;;;22.40;47.80;;;;;;5013150;28;20454;-61
2022/12/06 11:17:53;;;;;;;7.63;7.30;;;22.40;47.80;;;;;;5013387;28;20482;-61
2022/12/06 11:20:27;;;;;;;6.80;6.60;;;22.40;47.80;;;;;;5013159;28;20478;-60
2022/12/06 11:23:04;;;;;;;6.33;6.10;;;22.40;47.80;;;;;;5013218;28;20474;-62
2022/12/06 11:25:40;;;;;;;7.13;6.87;;;22.40;47.80;;;;;;5013061;28;20516;-57
2022/12/06 11:28:20;;;;;;;6.70;6.50;;;22.40;47.70;;;;;;5012976;28;20446;-61
2022/12/06 11:30:51;;;;;;;6.40;6.20;;;22.40;47.80;;;;;;5012637;28;20515;-60
2022/12/06 11:33:21;;;;;;;6.40;6.30;;;22.40;47.70;;;;;;5013398;28;20462;-61
2022/12/06 11:35:48;;;;;;;6.70;6.50;;;22.40;47.70;;;;;;5013573;28;20446;-61
2022/12/06 11:38:17;;;;;;;6.83;6.63;;;22.40;47.70;;;;;;5013573;28;20486;-62
2022/12/06 11:40:46;;;;;;;6.40;6.30;;;22.40;47.70;;;;;;5013119;28;20464;-61
2022/12/06 11:43:17;;;;;;;7.40;7.10;;;22.40;47.70;;;;;;5012851;28;20489;-60
2022/12/06 11:45:45;;;;;;;6.00;5.90;;;22.40;47.70;;;;;;5012826;28;20438;-61
2022/12/06 11:48:17;;;;;;;6.37;6.27;;;22.50;47.70;;;;;;5012582;28;20450;-60
2022/12/06 11:50:46;;;;;;;6.43;6.23;;;22.40;47.60;;;;;;5012280;28;20450;-62
2022/12/06 11:53:20;;;;;;;6.37;6.27;;;22.40;47.60;;;;;;5012391;28;20532;-60
2022/12/06 11:55:51;;;;;;;6.70;6.50;;;22.50;47.70;;;;;;5012592;28;20446;-60
2022/12/06 11:58:26;;;;;;;6.33;6.20;;;22.40;47.60;;;;;;5012695;28;20453;-63
2022/12/06 12:01:02;;;;;;;6.57;6.27;;;22.50;47.60;;;;;;5012454;28;20445;-60
2022/12/06 12:03:33;;;;;;;6.10;6.00;;;22.50;47.60;;;;;;5012589;28;20462;-64
2022/12/06 12:06:22;;;;;;;6.20;6.10;;;22.50;47.60;;;;;;5012358;28;20482;-62
2022/12/06 12:08:55;;;;;;;6.63;6.43;;;22.40;47.60;;;;;;5012216;28;20473;-63
2022/12/06 12:11:25;;;;;;;6.80;6.57;;;22.50;47.60;;;;;;5012392;28;21055;-64
2022/12/06 12:13:54;;;;;;;6.37;6.17;;;22.50;47.60;;;;;;5012373;28;20805;-64
2022/12/06 12:16:23;;;;;;;6.57;6.37;;;22.50;47.60;;;;;;5012449;28;20445;-64
2022/12/06 12:18:57;;;;;;;6.63;6.43;;;22.50;47.70;;;;;;5012172;28;20446;-64
2022/12/06 12:21:34;;;;;;;6.77;6.67;;;22.50;47.60;;;;;;5012258;28;20833;-64
2022/12/06 12:24:01;;;;;;;6.30;6.20;;;22.50;47.60;;;;;;5012131;28;20528;-64
2022/12/06 12:26:37;;;;;;;6.10;6.00;;;22.50;47.60;;;;;;5011979;28;20533;-64
2022/12/06 12:29:16;;;;;;;7.40;7.10;;;22.50;47.60;;;;;;5011888;28;20446;-65
2022/12/06 12:31:50;;;;;;;6.43;6.30;;;22.50;47.60;;;;;;5011828;28;20489;-63
2022/12/06 12:34:22;;;;;;;6.37;6.27;;;22.50;47.60;;;;;;5012117;28;20481;-63
2022/12/06 12:36:51;;;;;;;6.53;6.43;;;22.50;47.60;;;;;;5011879;28;20488;-62
2022/12/06 12:39:44;;;;;;;6.20;6.10;;;22.50;47.60;;;;;;5011717;28;20496;-61
2022/12/06 12:42:26;;;;;;;6.73;6.53;;;22.50;47.60;;;;;;5009946;28;20485;-62
2022/12/06 12:44:58;;;;;;;6.30;6.10;;;22.50;47.50;;;;;;5011879;28;20572;-61
2022/12/06 12:47:25;;;;;;;6.33;6.13;;;22.50;47.50;;;;;;5012093;28;20536;-63
2022/12/06 12:50:11;;;;;;;6.20;6.10;;;22.50;47.50;;;;;;5011577;28;20460;-62
2022/12/06 12:52:40;;;;;;;6.63;6.53;;;22.50;47.50;;;;;;5011572;28;20487;-62
2022/12/06 12:55:17;;;;;;;6.80;6.60;;;22.50;47.50;;;;;;5011846;28;20449;-63
2022/12/06 12:57:46;;;;;;;6.73;6.53;;;22.50;47.50;;;;;;5011829;28;21021;-63
2022/12/06 13:00:15;;;;;;;5.70;5.60;;;22.50;47.50;;;;;;5011530;28;20492;-62
2022/12/06 13:02:44;;;;;;;6.33;6.23;;;22.50;47.50;;;;;;5013262;28;20473;-62
2022/12/06 13:05:18;;;;;;;6.00;5.90;;;22.50;47.40;;;;;;5015718;28;20533;-63
2022/12/06 13:07:47;;;;;;;6.60;6.47;;;22.50;47.40;;;;;;5015855;28;20479;-62
2022/12/06 13:10:30;;;;;;;6.27;6.17;;;22.50;47.40;;;;;;5015390;28;20446;-63
2022/12/06 13:13:00;;;;;;;6.93;6.83;;;22.50;47.40;;;;;;5015350;28;20482;-62
2022/12/06 13:15:34;;;;;;;6.27;6.17;;;22.60;47.40;;;;;;5015404;28;20965;-62
2022/12/06 13:18:10;;;;;;;6.03;5.93;;;22.60;47.90;;;;;;5015530;28;20525;-63